sensor_id;sensor_type;location;lat;lon;timestamp;P1;durP1;ratioP1;P2;durP2;ratioP2
8944;SDS011;4507;40.232;29.132;2023-06-05T00:00:30;33.73;;;30.13;;
8944;SDS011;4507;40.232;29.132;2023-06-05T00:02:59;37.87;;;30.77;;
8944;SDS011;4507;40.232;29.132;2023-06-05T00:05:28;37.47;;;28.77;;
8944;SDS011;4507;40.232;29.132;2023-06-05T00:07:58;33.07;;;29.57;;
8944;SDS011;4507;40.232;29.132;2023-06-05T00:10:27;32.73;;;29.20;;
8944;SDS011;4507;40.232;29.132;2023-06-05T00:12:55;31.40;;;27.60;;
8944;SDS011;4507;40.232;29.132;2023-06-05T00:15:25;29.13;;;26.13;;
8944;SDS011;4507;40.232;29.132;2023-06-05T00:17:55;28.83;;;25.83;;
8944;SDS011;4507;40.232;29.132;2023-06-05T00:20:24;31.97;;;27.40;;
8944;SDS011;4507;40.232;29.132;2023-06-05T00:22:53;65.67;;;29.03;;
8944;SDS011;4507;40.232;29.132;2023-06-05T00:25:23;30.80;;;27.47;;
8944;SDS011;4507;40.232;29.132;2023-06-05T00:27:52;41.70;;;27.03;;
8944;SDS011;4507;40.232;29.132;2023-06-05T00:30:21;43.57;;;26.83;;
8944;SDS011;4507;40.232;29.132;2023-06-05T00:32:50;38.30;;;27.10;;
8944;SDS011;4507;40.232;29.132;2023-06-05T00:35:21;31.67;;;26.03;;
8944;SDS011;4507;40.232;29.132;2023-06-05T00:37:51;30.80;;;24.83;;
8944;SDS011;4507;40.232;29.132;2023-06-05T00:40:20;28.87;;;25.17;;
8944;SDS011;4507;40.232;29.132;2023-06-05T00:42:50;31.33;;;26.30;;
8944;SDS011;4507;40.232;29.132;2023-06-05T00:45:19;33.50;;;27.87;;
8944;SDS011;4507;40.232;29.132;2023-06-05T00:47:49;33.60;;;27.30;;
8944;SDS011;4507;40.232;29.132;2023-06-05T00:50:19;30.50;;;25.53;;
8944;SDS011;4507;40.232;29.132;2023-06-05T00:52:54;30.03;;;26.83;;
8944;SDS011;4507;40.232;29.132;2023-06-05T00:55:23;30.37;;;26.83;;
8944;SDS011;4507;40.232;29.132;2023-06-05T00:57:53;32.47;;;28.33;;
8944;SDS011;4507;40.232;29.132;2023-06-05T01:00:23;31.53;;;26.63;;
8944;SDS011;4507;40.232;29.132;2023-06-05T01:02:53;29.87;;;26.87;;
8944;SDS011;4507;40.232;29.132;2023-06-05T01:05:25;31.80;;;28.53;;
8944;SDS011;4507;40.232;29.132;2023-06-05T01:07:55;36.23;;;30.50;;
8944;SDS011;4507;40.232;29.132;2023-06-05T01:10:24;36.63;;;32.83;;
8944;SDS011;4507;40.232;29.132;2023-06-05T01:12:57;35.70;;;30.77;;
8944;SDS011;4507;40.232;29.132;2023-06-05T01:15:32;36.70;;;32.43;;
8944;SDS011;4507;40.232;29.132;2023-06-05T01:18:05;36.43;;;32.37;;
8944;SDS011;4507;40.232;29.132;2023-06-05T01:20:37;41.10;;;33.00;;
8944;SDS011;4507;40.232;29.132;2023-06-05T01:23:10;35.67;;;31.87;;
8944;SDS011;4507;40.232;29.132;2023-06-05T01:25:39;46.30;;;32.43;;
8944;SDS011;4507;40.232;29.132;2023-06-05T01:28:10;34.93;;;30.27;;
8944;SDS011;4507;40.232;29.132;2023-06-05T01:30:44;38.00;;;32.03;;
8944;SDS011;4507;40.232;29.132;2023-06-05T01:33:22;39.33;;;31.33;;
8944;SDS011;4507;40.232;29.132;2023-06-05T01:35:54;34.57;;;30.83;;
8944;SDS011;4507;40.232;29.132;2023-06-05T01:38:33;41.33;;;30.13;;
8944;SDS011;4507;40.232;29.132;2023-06-05T01:41:03;33.20;;;29.60;;
8944;SDS011;4507;40.232;29.132;2023-06-05T01:43:33;34.60;;;28.53;;
8944;SDS011;4507;40.232;29.132;2023-06-05T01:46:03;44.67;;;31.97;;
8944;SDS011;4507;40.232;29.132;2023-06-05T01:48:34;38.67;;;30.90;;
8944;SDS011;4507;40.232;29.132;2023-06-05T01:51:06;38.27;;;33.07;;
8944;SDS011;4507;40.232;29.132;2023-06-05T01:53:37;39.03;;;34.37;;
8944;SDS011;4507;40.232;29.132;2023-06-05T01:56:25;46.53;;;35.80;;
8944;SDS011;4507;40.232;29.132;2023-06-05T01:58:57;40.00;;;34.07;;
8944;SDS011;4507;40.232;29.132;2023-06-05T02:01:26;42.63;;;33.93;;
8944;SDS011;4507;40.232;29.132;2023-06-05T02:03:55;47.07;;;33.60;;
8944;SDS011;4507;40.232;29.132;2023-06-05T02:06:24;38.60;;;33.37;;
8944;SDS011;4507;40.232;29.132;2023-06-05T02:08:55;42.97;;;32.90;;
8944;SDS011;4507;40.232;29.132;2023-06-05T02:11:26;38.10;;;31.23;;
8944;SDS011;4507;40.232;29.132;2023-06-05T02:13:56;36.67;;;32.77;;
8944;SDS011;4507;40.232;29.132;2023-06-05T02:16:26;41.37;;;33.60;;
8944;SDS011;4507;40.232;29.132;2023-06-05T02:18:55;39.20;;;33.03;;
8944;SDS011;4507;40.232;29.132;2023-06-05T02:21:30;36.10;;;32.07;;
8944;SDS011;4507;40.232;29.132;2023-06-05T02:24:01;38.17;;;34.00;;
8944;SDS011;4507;40.232;29.132;2023-06-05T02:26:30;43.40;;;34.33;;
8944;SDS011;4507;40.232;29.132;2023-06-05T02:28:59;45.27;;;35.03;;
8944;SDS011;4507;40.232;29.132;2023-06-05T02:31:28;44.47;;;35.30;;
8944;SDS011;4507;40.232;29.132;2023-06-05T02:33:57;45.20;;;34.70;;
8944;SDS011;4507;40.232;29.132;2023-06-05T02:36:26;38.23;;;33.40;;
8944;SDS011;4507;40.232;29.132;2023-06-05T02:39:02;37.47;;;31.93;;
8944;SDS011;4507;40.232;29.132;2023-06-05T02:41:32;41.67;;;33.70;;
8944;SDS011;4507;40.232;29.132;2023-06-05T02:44:03;42.93;;;34.63;;
8944;SDS011;4507;40.232;29.132;2023-06-05T02:46:32;43.63;;;34.80;;
8944;SDS011;4507;40.232;29.132;2023-06-05T02:49:01;38.27;;;32.80;;
8944;SDS011;4507;40.232;29.132;2023-06-05T02:51:30;39.73;;;34.17;;
8944;SDS011;4507;40.232;29.132;2023-06-05T02:53:59;40.70;;;34.10;;
8944;SDS011;4507;40.232;29.132;2023-06-05T02:56:30;45.43;;;38.40;;
8944;SDS011;4507;40.232;29.132;2023-06-05T02:59:00;45.73;;;38.23;;
8944;SDS011;4507;40.232;29.132;2023-06-05T03:01:33;50.93;;;42.13;;
8944;SDS011;4507;40.232;29.132;2023-06-05T03:04:06;49.97;;;40.87;;
8944;SDS011;4507;40.232;29.132;2023-06-05T03:06:37;60.80;;;42.93;;
8944;SDS011;4507;40.232;29.132;2023-06-05T03:09:11;58.63;;;45.47;;
8944;SDS011;4507;40.232;29.132;2023-06-05T03:11:40;70.10;;;45.67;;
8944;SDS011;4507;40.232;29.132;2023-06-05T03:14:09;67.30;;;44.60;;
8944;SDS011;4507;40.232;29.132;2023-06-05T03:16:38;63.70;;;45.03;;
8944;SDS011;4507;40.232;29.132;2023-06-05T03:19:12;79.90;;;46.50;;
8944;SDS011;4507;40.232;29.132;2023-06-05T03:21:43;76.77;;;44.63;;
8944;SDS011;4507;40.232;29.132;2023-06-05T03:24:14;53.83;;;42.23;;
8944;SDS011;4507;40.232;29.132;2023-06-05T03:26:48;49.67;;;40.90;;
8944;SDS011;4507;40.232;29.132;2023-06-05T03:29:17;68.40;;;45.63;;
8944;SDS011;4507;40.232;29.132;2023-06-05T03:31:47;73.43;;;44.27;;
8944;SDS011;4507;40.232;29.132;2023-06-05T03:34:16;52.10;;;41.57;;
8944;SDS011;4507;40.232;29.132;2023-06-05T03:36:47;59.43;;;42.07;;
8944;SDS011;4507;40.232;29.132;2023-06-05T03:39:17;64.00;;;42.53;;
8944;SDS011;4507;40.232;29.132;2023-06-05T03:41:48;63.70;;;42.73;;
8944;SDS011;4507;40.232;29.132;2023-06-05T03:44:17;60.73;;;44.87;;
8944;SDS011;4507;40.232;29.132;2023-06-05T03:46:47;58.63;;;43.63;;
8944;SDS011;4507;40.232;29.132;2023-06-05T03:49:16;60.60;;;44.40;;
8944;SDS011;4507;40.232;29.132;2023-06-05T03:51:45;64.73;;;42.60;;
8944;SDS011;4507;40.232;29.132;2023-06-05T03:54:14;61.23;;;44.20;;
8944;SDS011;4507;40.232;29.132;2023-06-05T03:56:45;62.47;;;42.83;;
8944;SDS011;4507;40.232;29.132;2023-06-05T03:59:18;66.57;;;46.17;;
8944;SDS011;4507;40.232;29.132;2023-06-05T04:01:56;56.37;;;44.50;;
8944;SDS011;4507;40.232;29.132;2023-06-05T04:04:25;57.03;;;43.00;;
8944;SDS011;4507;40.232;29.132;2023-06-05T04:06:54;51.33;;;41.50;;
8944;SDS011;4507;40.232;29.132;2023-06-05T04:09:25;53.00;;;43.00;;
8944;SDS011;4507;40.232;29.132;2023-06-05T04:11:57;54.97;;;43.43;;
8944;SDS011;4507;40.232;29.132;2023-06-05T04:14:28;72.33;;;44.77;;
8944;SDS011;4507;40.232;29.132;2023-06-05T04:16:57;87.10;;;45.43;;
8944;SDS011;4507;40.232;29.132;2023-06-05T04:19:26;80.67;;;43.03;;
8944;SDS011;4507;40.232;29.132;2023-06-05T04:21:56;69.40;;;38.37;;
8944;SDS011;4507;40.232;29.132;2023-06-05T04:24:26;47.40;;;36.47;;
8944;SDS011;4507;40.232;29.132;2023-06-05T04:26:57;53.03;;;33.70;;
8944;SDS011;4507;40.232;29.132;2023-06-05T04:29:27;51.10;;;31.57;;
8944;SDS011;4507;40.232;29.132;2023-06-05T04:31:59;30.83;;;26.00;;
8944;SDS011;4507;40.232;29.132;2023-06-05T04:34:28;46.43;;;26.40;;
8944;SDS011;4507;40.232;29.132;2023-06-05T04:36:58;45.40;;;27.87;;
8944;SDS011;4507;40.232;29.132;2023-06-05T04:39:26;79.47;;;28.20;;
8944;SDS011;4507;40.232;29.132;2023-06-05T04:41:55;47.53;;;27.50;;
8944;SDS011;4507;40.232;29.132;2023-06-05T04:44:43;33.93;;;26.60;;
8944;SDS011;4507;40.232;29.132;2023-06-05T04:47:12;32.23;;;26.80;;
8944;SDS011;4507;40.232;29.132;2023-06-05T04:49:41;48.47;;;28.53;;
8944;SDS011;4507;40.232;29.132;2023-06-05T04:52:10;44.00;;;30.10;;
8944;SDS011;4507;40.232;29.132;2023-06-05T04:54:40;39.23;;;30.00;;
8944;SDS011;4507;40.232;29.132;2023-06-05T04:57:10;47.57;;;30.57;;
8944;SDS011;4507;40.232;29.132;2023-06-05T04:59:40;37.60;;;29.77;;
8944;SDS011;4507;40.232;29.132;2023-06-05T05:02:12;39.17;;;29.23;;
8944;SDS011;4507;40.232;29.132;2023-06-05T05:04:43;39.30;;;27.53;;
8944;SDS011;4507;40.232;29.132;2023-06-05T05:07:12;30.80;;;24.37;;
8944;SDS011;4507;40.232;29.132;2023-06-05T05:09:43;29.93;;;25.13;;
8944;SDS011;4507;40.232;29.132;2023-06-05T05:12:15;42.67;;;27.47;;
8944;SDS011;4507;40.232;29.132;2023-06-05T05:14:44;39.57;;;25.17;;
8944;SDS011;4507;40.232;29.132;2023-06-05T05:17:13;46.50;;;26.07;;
8944;SDS011;4507;40.232;29.132;2023-06-05T05:19:47;37.90;;;22.57;;
8944;SDS011;4507;40.232;29.132;2023-06-05T05:22:17;60.10;;;23.67;;
8944;SDS011;4507;40.232;29.132;2023-06-05T05:24:46;50.50;;;22.30;;
8944;SDS011;4507;40.232;29.132;2023-06-05T05:27:16;43.03;;;21.57;;
8944;SDS011;4507;40.232;29.132;2023-06-05T05:29:45;32.30;;;20.70;;
8944;SDS011;4507;40.232;29.132;2023-06-05T05:32:14;27.40;;;18.77;;
8944;SDS011;4507;40.232;29.132;2023-06-05T05:34:44;34.83;;;19.30;;
8944;SDS011;4507;40.232;29.132;2023-06-05T05:37:13;33.53;;;17.80;;
8944;SDS011;4507;40.232;29.132;2023-06-05T05:39:42;38.87;;;19.73;;
8944;SDS011;4507;40.232;29.132;2023-06-05T05:42:11;24.97;;;18.10;;
8944;SDS011;4507;40.232;29.132;2023-06-05T05:44:42;74.77;;;22.13;;
8944;SDS011;4507;40.232;29.132;2023-06-05T05:47:11;36.40;;;19.37;;
8944;SDS011;4507;40.232;29.132;2023-06-05T05:49:39;40.97;;;19.37;;
8944;SDS011;4507;40.232;29.132;2023-06-05T05:52:09;35.57;;;18.40;;
8944;SDS011;4507;40.232;29.132;2023-06-05T05:54:38;34.87;;;19.43;;
8944;SDS011;4507;40.232;29.132;2023-06-05T05:57:07;43.00;;;25.87;;
8944;SDS011;4507;40.232;29.132;2023-06-05T05:59:36;60.47;;;30.77;;
8944;SDS011;4507;40.232;29.132;2023-06-05T06:02:09;45.83;;;25.90;;
8944;SDS011;4507;40.232;29.132;2023-06-05T06:04:39;39.03;;;21.37;;
8944;SDS011;4507;40.232;29.132;2023-06-05T06:07:11;49.30;;;28.43;;
8944;SDS011;4507;40.232;29.132;2023-06-05T06:09:40;43.50;;;27.90;;
8944;SDS011;4507;40.232;29.132;2023-06-05T06:12:09;32.87;;;26.63;;
8944;SDS011;4507;40.232;29.132;2023-06-05T06:14:38;33.87;;;24.87;;
8944;SDS011;4507;40.232;29.132;2023-06-05T06:17:31;51.97;;;25.87;;
8944;SDS011;4507;40.232;29.132;2023-06-05T06:20:00;31.87;;;24.17;;
8944;SDS011;4507;40.232;29.132;2023-06-05T06:22:30;27.53;;;23.67;;
8944;SDS011;4507;40.232;29.132;2023-06-05T06:24:59;55.90;;;25.23;;
8944;SDS011;4507;40.232;29.132;2023-06-05T06:27:28;33.43;;;25.90;;
8944;SDS011;4507;40.232;29.132;2023-06-05T06:30:01;47.63;;;33.47;;
8944;SDS011;4507;40.232;29.132;2023-06-05T06:32:33;46.57;;;34.57;;
8944;SDS011;4507;40.232;29.132;2023-06-05T06:35:02;53.53;;;29.17;;
8944;SDS011;4507;40.232;29.132;2023-06-05T06:37:33;41.07;;;31.33;;
8944;SDS011;4507;40.232;29.132;2023-06-05T06:40:02;42.27;;;31.30;;
8944;SDS011;4507;40.232;29.132;2023-06-05T06:42:37;48.83;;;26.87;;
8944;SDS011;4507;40.232;29.132;2023-06-05T06:45:19;43.23;;;12.97;;
8944;SDS011;4507;40.232;29.132;2023-06-05T06:47:52;50.03;;;13.83;;
8944;SDS011;4507;40.232;29.132;2023-06-05T06:50:52;40.00;;;12.40;;
8944;SDS011;4507;40.232;29.132;2023-06-05T06:53:21;17.60;;;9.10;;
8944;SDS011;4507;40.232;29.132;2023-06-05T06:55:50;17.77;;;8.87;;
8944;SDS011;4507;40.232;29.132;2023-06-05T06:58:19;24.03;;;8.83;;
8944;SDS011;4507;40.232;29.132;2023-06-05T07:00:48;32.00;;;9.73;;
8944;SDS011;4507;40.232;29.132;2023-06-05T07:03:18;35.70;;;10.67;;
8944;SDS011;4507;40.232;29.132;2023-06-05T07:05:47;31.37;;;10.83;;
8944;SDS011;4507;40.232;29.132;2023-06-05T07:08:18;42.63;;;10.10;;
8944;SDS011;4507;40.232;29.132;2023-06-05T07:10:47;14.93;;;8.10;;
8944;SDS011;4507;40.232;29.132;2023-06-05T07:13:16;17.00;;;8.50;;
8944;SDS011;4507;40.232;29.132;2023-06-05T07:15:45;68.43;;;13.57;;
8944;SDS011;4507;40.232;29.132;2023-06-05T07:18:17;15.40;;;9.10;;
8944;SDS011;4507;40.232;29.132;2023-06-05T07:20:48;37.33;;;10.13;;
8944;SDS011;4507;40.232;29.132;2023-06-05T07:23:17;30.47;;;8.87;;
8944;SDS011;4507;40.232;29.132;2023-06-05T07:25:47;17.37;;;7.70;;
8944;SDS011;4507;40.232;29.132;2023-06-05T07:28:18;26.40;;;9.33;;
8944;SDS011;4507;40.232;29.132;2023-06-05T07:30:47;14.73;;;8.20;;
8944;SDS011;4507;40.232;29.132;2023-06-05T07:33:17;22.00;;;7.17;;
8944;SDS011;4507;40.232;29.132;2023-06-05T07:36:00;13.83;;;7.70;;
8944;SDS011;4507;40.232;29.132;2023-06-05T07:38:30;23.93;;;7.53;;
8944;SDS011;4507;40.232;29.132;2023-06-05T07:40:59;37.83;;;7.73;;
8944;SDS011;4507;40.232;29.132;2023-06-05T07:43:31;27.90;;;7.03;;
8944;SDS011;4507;40.232;29.132;2023-06-05T07:46:00;15.80;;;8.33;;
8944;SDS011;4507;40.232;29.132;2023-06-05T07:48:34;29.37;;;8.50;;
8944;SDS011;4507;40.232;29.132;2023-06-05T07:51:08;138.83;;;18.93;;
8944;SDS011;4507;40.232;29.132;2023-06-05T07:53:37;29.73;;;9.33;;
8944;SDS011;4507;40.232;29.132;2023-06-05T07:56:06;19.23;;;6.90;;
8944;SDS011;4507;40.232;29.132;2023-06-05T07:58:35;23.37;;;7.13;;
8944;SDS011;4507;40.232;29.132;2023-06-05T08:01:05;19.17;;;6.67;;
8944;SDS011;4507;40.232;29.132;2023-06-05T08:03:35;68.00;;;10.80;;
8944;SDS011;4507;40.232;29.132;2023-06-05T08:06:04;20.10;;;8.30;;
8944;SDS011;4507;40.232;29.132;2023-06-05T08:08:35;18.07;;;6.17;;
8944;SDS011;4507;40.232;29.132;2023-06-05T08:11:04;36.07;;;8.17;;
8944;SDS011;4507;40.232;29.132;2023-06-05T08:13:33;17.33;;;6.53;;
8944;SDS011;4507;40.232;29.132;2023-06-05T08:16:04;11.93;;;7.20;;
8944;SDS011;4507;40.232;29.132;2023-06-05T08:18:33;48.80;;;11.47;;
8944;SDS011;4507;40.232;29.132;2023-06-05T08:21:06;30.00;;;10.10;;
8944;SDS011;4507;40.232;29.132;2023-06-05T08:23:37;19.13;;;6.73;;
8944;SDS011;4507;40.232;29.132;2023-06-05T08:26:06;25.30;;;7.00;;
8944;SDS011;4507;40.232;29.132;2023-06-05T08:28:38;14.83;;;7.10;;
8944;SDS011;4507;40.232;29.132;2023-06-05T08:31:07;14.97;;;7.93;;
8944;SDS011;4507;40.232;29.132;2023-06-05T08:33:37;27.10;;;8.93;;
8944;SDS011;4507;40.232;29.132;2023-06-05T08:36:06;24.63;;;10.23;;
8944;SDS011;4507;40.232;29.132;2023-06-05T08:38:36;28.00;;;8.60;;
8944;SDS011;4507;40.232;29.132;2023-06-05T08:41:08;27.73;;;8.53;;
8944;SDS011;4507;40.232;29.132;2023-06-05T08:43:37;14.97;;;6.90;;
8944;SDS011;4507;40.232;29.132;2023-06-05T08:46:27;30.60;;;14.90;;
8944;SDS011;4507;40.232;29.132;2023-06-05T08:49:02;21.37;;;8.80;;
8944;SDS011;4507;40.232;29.132;2023-06-05T08:51:37;25.77;;;9.13;;
8944;SDS011;4507;40.232;29.132;2023-06-05T08:54:09;53.67;;;11.27;;
8944;SDS011;4507;40.232;29.132;2023-06-05T08:56:42;23.13;;;9.97;;
8944;SDS011;4507;40.232;29.132;2023-06-05T08:59:12;30.90;;;10.07;;
8944;SDS011;4507;40.232;29.132;2023-06-05T09:01:43;17.10;;;8.43;;
8944;SDS011;4507;40.232;29.132;2023-06-05T09:04:15;26.40;;;10.80;;
8944;SDS011;4507;40.232;29.132;2023-06-05T09:06:47;15.70;;;9.43;;
8944;SDS011;4507;40.232;29.132;2023-06-05T09:09:20;23.70;;;10.67;;
8944;SDS011;4507;40.232;29.132;2023-06-05T09:12:01;28.07;;;10.90;;
8944;SDS011;4507;40.232;29.132;2023-06-05T09:14:31;21.17;;;8.57;;
8944;SDS011;4507;40.232;29.132;2023-06-05T09:17:02;50.10;;;11.13;;
8944;SDS011;4507;40.232;29.132;2023-06-05T09:19:35;26.37;;;12.63;;
8944;SDS011;4507;40.232;29.132;2023-06-05T09:22:06;47.93;;;13.57;;
8944;SDS011;4507;40.232;29.132;2023-06-05T09:24:37;18.83;;;8.90;;
8944;SDS011;4507;40.232;29.132;2023-06-05T09:27:08;13.97;;;9.27;;
8944;SDS011;4507;40.232;29.132;2023-06-05T09:29:39;57.23;;;13.30;;
8944;SDS011;4507;40.232;29.132;2023-06-05T09:32:15;21.87;;;8.93;;
8944;SDS011;4507;40.232;29.132;2023-06-05T09:34:47;18.17;;;9.10;;
8944;SDS011;4507;40.232;29.132;2023-06-05T09:37:32;16.97;;;8.60;;
8944;SDS011;4507;40.232;29.132;2023-06-05T09:40:05;17.50;;;7.63;;
8944;SDS011;4507;40.232;29.132;2023-06-05T09:42:41;14.43;;;7.57;;
8944;SDS011;4507;40.232;29.132;2023-06-05T09:45:10;14.60;;;7.60;;
8944;SDS011;4507;40.232;29.132;2023-06-05T09:47:39;16.43;;;7.60;;
8944;SDS011;4507;40.232;29.132;2023-06-05T09:50:23;24.37;;;8.87;;
8944;SDS011;4507;40.232;29.132;2023-06-05T09:52:54;14.47;;;7.97;;
8944;SDS011;4507;40.232;29.132;2023-06-05T09:55:26;58.93;;;15.20;;
8944;SDS011;4507;40.232;29.132;2023-06-05T09:57:56;25.43;;;9.27;;
8944;SDS011;4507;40.232;29.132;2023-06-05T10:00:27;23.73;;;9.87;;
8944;SDS011;4507;40.232;29.132;2023-06-05T10:02:57;27.80;;;10.30;;
8944;SDS011;4507;40.232;29.132;2023-06-05T10:05:27;22.50;;;8.23;;
8944;SDS011;4507;40.232;29.132;2023-06-05T10:07:56;18.23;;;7.90;;
8944;SDS011;4507;40.232;29.132;2023-06-05T10:10:27;35.00;;;10.47;;
8944;SDS011;4507;40.232;29.132;2023-06-05T10:12:58;42.47;;;15.83;;
8944;SDS011;4507;40.232;29.132;2023-06-05T10:15:30;18.30;;;7.67;;
8944;SDS011;4507;40.232;29.132;2023-06-05T10:18:00;32.67;;;8.77;;
8944;SDS011;4507;40.232;29.132;2023-06-05T10:20:29;20.27;;;7.90;;
8944;SDS011;4507;40.232;29.132;2023-06-05T10:23:00;21.87;;;7.40;;
8944;SDS011;4507;40.232;29.132;2023-06-05T10:25:32;27.57;;;7.63;;
8944;SDS011;4507;40.232;29.132;2023-06-05T10:28:06;22.83;;;7.53;;
8944;SDS011;4507;40.232;29.132;2023-06-05T10:31:17;26.93;;;7.93;;
8944;SDS011;4507;40.232;29.132;2023-06-05T10:33:55;17.53;;;6.80;;
8944;SDS011;4507;40.232;29.132;2023-06-05T10:36:36;15.80;;;6.97;;
8944;SDS011;4507;40.232;29.132;2023-06-05T10:39:15;22.40;;;7.20;;
8944;SDS011;4507;40.232;29.132;2023-06-05T10:41:47;33.30;;;9.57;;
8944;SDS011;4507;40.232;29.132;2023-06-05T10:44:19;22.90;;;8.53;;
8944;SDS011;4507;40.232;29.132;2023-06-05T10:50:20;16.10;;;6.40;;
8944;SDS011;4507;40.232;29.132;2023-06-05T10:52:54;15.27;;;6.03;;
8944;SDS011;4507;40.232;29.132;2023-06-05T10:55:25;22.50;;;8.67;;
8944;SDS011;4507;40.232;29.132;2023-06-05T10:58:06;58.40;;;9.53;;
8944;SDS011;4507;40.232;29.132;2023-06-05T11:00:37;20.30;;;7.30;;
8944;SDS011;4507;40.232;29.132;2023-06-05T11:03:06;14.53;;;5.83;;
8944;SDS011;4507;40.232;29.132;2023-06-05T11:05:35;22.10;;;6.90;;
8944;SDS011;4507;40.232;29.132;2023-06-05T11:08:10;30.60;;;7.80;;
8944;SDS011;4507;40.232;29.132;2023-06-05T11:13:54;11.73;;;6.00;;
8944;SDS011;4507;40.232;29.132;2023-06-05T11:16:26;17.60;;;6.23;;
8944;SDS011;4507;40.232;29.132;2023-06-05T11:22:07;19.83;;;8.53;;
8944;SDS011;4507;40.232;29.132;2023-06-05T11:24:38;62.63;;;18.30;;
8944;SDS011;4507;40.232;29.132;2023-06-05T11:27:07;33.30;;;7.60;;
8944;SDS011;4507;40.232;29.132;2023-06-05T11:30:18;26.60;;;11.53;;
8944;SDS011;4507;40.232;29.132;2023-06-05T11:33:08;62.67;;;30.00;;
8944;SDS011;4507;40.232;29.132;2023-06-05T11:35:39;17.93;;;7.87;;
8944;SDS011;4507;40.232;29.132;2023-06-05T11:38:09;31.70;;;7.47;;
8944;SDS011;4507;40.232;29.132;2023-06-05T11:40:44;9.90;;;6.43;;
8944;SDS011;4507;40.232;29.132;2023-06-05T11:43:14;32.53;;;7.53;;
8944;SDS011;4507;40.232;29.132;2023-06-05T11:45:51;21.70;;;8.27;;
8944;SDS011;4507;40.232;29.132;2023-06-05T11:48:23;15.20;;;8.20;;
8944;SDS011;4507;40.232;29.132;2023-06-05T11:50:55;18.97;;;7.97;;
8944;SDS011;4507;40.232;29.132;2023-06-05T11:53:28;35.80;;;8.93;;
8944;SDS011;4507;40.232;29.132;2023-06-05T11:56:00;11.73;;;6.57;;
8944;SDS011;4507;40.232;29.132;2023-06-05T11:58:37;27.53;;;6.97;;
8944;SDS011;4507;40.232;29.132;2023-06-05T12:01:09;53.97;;;10.47;;
8944;SDS011;4507;40.232;29.132;2023-06-05T12:03:45;18.23;;;6.57;;
8944;SDS011;4507;40.232;29.132;2023-06-05T12:06:17;42.80;;;9.30;;
8944;SDS011;4507;40.232;29.132;2023-06-05T12:08:51;19.40;;;6.73;;
8944;SDS011;4507;40.232;29.132;2023-06-05T12:11:20;17.43;;;7.00;;
8944;SDS011;4507;40.232;29.132;2023-06-05T12:13:51;24.57;;;7.27;;
8944;SDS011;4507;40.232;29.132;2023-06-05T12:16:29;22.13;;;7.07;;
8944;SDS011;4507;40.232;29.132;2023-06-05T12:19:00;47.80;;;9.07;;
8944;SDS011;4507;40.232;29.132;2023-06-05T12:21:40;16.40;;;6.20;;
8944;SDS011;4507;40.232;29.132;2023-06-05T12:24:09;14.77;;;5.57;;
8944;SDS011;4507;40.232;29.132;2023-06-05T12:26:48;47.03;;;8.27;;
8944;SDS011;4507;40.232;29.132;2023-06-05T12:29:21;25.83;;;6.30;;
8944;SDS011;4507;40.232;29.132;2023-06-05T12:31:53;17.23;;;7.20;;
8944;SDS011;4507;40.232;29.132;2023-06-05T12:34:39;39.77;;;9.07;;
8944;SDS011;4507;40.232;29.132;2023-06-05T12:37:26;26.00;;;10.43;;
8944;SDS011;4507;40.232;29.132;2023-06-05T12:39:59;56.20;;;30.80;;
8944;SDS011;4507;40.232;29.132;2023-06-05T12:42:33;32.23;;;12.97;;
8944;SDS011;4507;40.232;29.132;2023-06-05T12:45:04;16.20;;;8.00;;
8944;SDS011;4507;40.232;29.132;2023-06-05T12:47:35;33.13;;;19.30;;
8944;SDS011;4507;40.232;29.132;2023-06-05T12:50:06;27.13;;;17.77;;
8944;SDS011;4507;40.232;29.132;2023-06-05T12:52:39;33.90;;;14.73;;
8944;SDS011;4507;40.232;29.132;2023-06-05T12:55:09;33.10;;;12.07;;
8944;SDS011;4507;40.232;29.132;2023-06-05T12:57:41;25.20;;;12.80;;
8944;SDS011;4507;40.232;29.132;2023-06-05T13:00:12;15.73;;;6.90;;
8944;SDS011;4507;40.232;29.132;2023-06-05T13:02:44;18.13;;;6.47;;
8944;SDS011;4507;40.232;29.132;2023-06-05T13:05:33;14.47;;;7.47;;
8944;SDS011;4507;40.232;29.132;2023-06-05T13:08:02;25.33;;;8.60;;
8944;SDS011;4507;40.232;29.132;2023-06-05T13:10:31;32.43;;;8.57;;
8944;SDS011;4507;40.232;29.132;2023-06-05T13:13:00;53.03;;;9.90;;
8944;SDS011;4507;40.232;29.132;2023-06-05T13:15:30;44.23;;;8.63;;
8944;SDS011;4507;40.232;29.132;2023-06-05T13:18:00;14.07;;;7.40;;
8944;SDS011;4507;40.232;29.132;2023-06-05T13:20:29;19.77;;;9.07;;
8944;SDS011;4507;40.232;29.132;2023-06-05T13:23:01;43.00;;;16.70;;
8944;SDS011;4507;40.232;29.132;2023-06-05T13:25:30;19.00;;;9.30;;
8944;SDS011;4507;40.232;29.132;2023-06-05T13:28:00;34.53;;;10.73;;
8944;SDS011;4507;40.232;29.132;2023-06-05T13:30:29;17.17;;;10.10;;
8944;SDS011;4507;40.232;29.132;2023-06-05T13:32:59;17.13;;;7.73;;
8944;SDS011;4507;40.232;29.132;2023-06-05T13:35:30;15.57;;;5.57;;
8944;SDS011;4507;40.232;29.132;2023-06-05T13:37:59;14.87;;;5.33;;
8944;SDS011;4507;40.232;29.132;2023-06-05T13:40:28;17.00;;;6.40;;
8944;SDS011;4507;40.232;29.132;2023-06-05T13:42:59;29.13;;;13.33;;
8944;SDS011;4507;40.232;29.132;2023-06-05T13:45:28;26.80;;;7.00;;
8944;SDS011;4507;40.232;29.132;2023-06-05T13:47:57;21.87;;;5.73;;
8944;SDS011;4507;40.232;29.132;2023-06-05T13:50:27;34.00;;;6.83;;
8944;SDS011;4507;40.232;29.132;2023-06-05T13:52:56;36.67;;;8.43;;
8944;SDS011;4507;40.232;29.132;2023-06-05T13:55:25;18.13;;;5.60;;
8944;SDS011;4507;40.232;29.132;2023-06-05T13:57:54;57.17;;;32.47;;
8944;SDS011;4507;40.232;29.132;2023-06-05T14:00:28;43.67;;;12.80;;
8944;SDS011;4507;40.232;29.132;2023-06-05T14:02:57;16.93;;;6.57;;
8944;SDS011;4507;40.232;29.132;2023-06-05T14:05:28;31.57;;;7.57;;
8944;SDS011;4507;40.232;29.132;2023-06-05T14:08:02;39.53;;;8.00;;
8944;SDS011;4507;40.232;29.132;2023-06-05T14:10:34;16.57;;;5.33;;
8944;SDS011;4507;40.232;29.132;2023-06-05T14:13:03;14.63;;;5.20;;
8944;SDS011;4507;40.232;29.132;2023-06-05T14:15:32;16.57;;;5.60;;
8944;SDS011;4507;40.232;29.132;2023-06-05T14:18:03;18.03;;;6.30;;
8944;SDS011;4507;40.232;29.132;2023-06-05T14:20:34;33.00;;;6.47;;
8944;SDS011;4507;40.232;29.132;2023-06-05T14:23:04;29.13;;;6.77;;
8944;SDS011;4507;40.232;29.132;2023-06-05T14:25:33;21.43;;;5.80;;
8944;SDS011;4507;40.232;29.132;2023-06-05T14:28:01;26.27;;;6.00;;
8944;SDS011;4507;40.232;29.132;2023-06-05T14:30:30;40.80;;;7.67;;
8944;SDS011;4507;40.232;29.132;2023-06-05T14:32:59;21.63;;;6.10;;
8944;SDS011;4507;40.232;29.132;2023-06-05T14:35:28;16.67;;;5.60;;
8944;SDS011;4507;40.232;29.132;2023-06-05T14:37:59;12.00;;;5.50;;
8944;SDS011;4507;40.232;29.132;2023-06-05T14:40:30;12.00;;;5.10;;
8944;SDS011;4507;40.232;29.132;2023-06-05T14:43:10;17.83;;;6.03;;
8944;SDS011;4507;40.232;29.132;2023-06-05T14:45:44;20.60;;;6.40;;
8944;SDS011;4507;40.232;29.132;2023-06-05T14:48:13;25.03;;;6.73;;
8944;SDS011;4507;40.232;29.132;2023-06-05T14:50:42;21.03;;;6.53;;
8944;SDS011;4507;40.232;29.132;2023-06-05T14:53:14;33.30;;;9.27;;
8944;SDS011;4507;40.232;29.132;2023-06-05T14:55:43;34.07;;;9.87;;
8944;SDS011;4507;40.232;29.132;2023-06-05T14:58:13;43.10;;;9.20;;
8944;SDS011;4507;40.232;29.132;2023-06-05T15:00:42;74.33;;;13.23;;
8944;SDS011;4507;40.232;29.132;2023-06-05T15:03:11;94.93;;;15.30;;
8944;SDS011;4507;40.232;29.132;2023-06-05T15:05:40;87.13;;;13.50;;
8944;SDS011;4507;40.232;29.132;2023-06-05T15:08:09;16.63;;;5.60;;
8944;SDS011;4507;40.232;29.132;2023-06-05T15:10:40;18.77;;;6.10;;
8944;SDS011;4507;40.232;29.132;2023-06-05T15:13:09;25.63;;;6.90;;
8944;SDS011;4507;40.232;29.132;2023-06-05T15:15:38;32.10;;;5.90;;